sensor_id;sensor_type;location;lat;lon;timestamp;P1;durP1;ratioP1;P2;durP2;ratioP2
66212;SDS011;53015;50.046;8.238;2022-08-21T00:02:16;4.47;;;2.28;;
66212;SDS011;53015;50.046;8.238;2022-08-21T00:04:42;7.47;;;2.20;;
66212;SDS011;53015;50.046;8.238;2022-08-21T00:07:08;5.78;;;2.20;;
66212;SDS011;53015;50.046;8.238;2022-08-21T00:09:33;11.52;;;3.10;;
66212;SDS011;53015;50.046;8.238;2022-08-21T00:11:59;5.63;;;2.35;;
66212;SDS011;53015;50.046;8.238;2022-08-21T00:14:24;6.30;;;2.33;;
66212;SDS011;53015;50.046;8.238;2022-08-21T00:16:49;4.57;;;2.15;;
66212;SDS011;53015;50.046;8.238;2022-08-21T00:19:15;6.43;;;2.22;;
66212;SDS011;53015;50.046;8.238;2022-08-21T00:21:41;6.47;;;2.45;;
66212;SDS011;53015;50.046;8.238;2022-08-21T00:24:06;8.45;;;2.60;;
66212;SDS011;53015;50.046;8.238;2022-08-21T00:26:32;7.63;;;2.70;;
66212;SDS011;53015;50.046;8.238;2022-08-21T00:28:57;6.97;;;2.78;;
66212;SDS011;53015;50.046;8.238;2022-08-21T00:31:23;8.77;;;2.70;;
66212;SDS011;53015;50.046;8.238;2022-08-21T00:33:48;6.03;;;2.42;;
66212;SDS011;53015;50.046;8.238;2022-08-21T00:36:13;5.70;;;2.17;;
66212;SDS011;53015;50.046;8.238;2022-08-21T00:38:39;5.20;;;2.20;;
66212;SDS011;53015;50.046;8.238;2022-08-21T00:41:06;5.53;;;2.50;;
66212;SDS011;53015;50.046;8.238;2022-08-21T00:43:34;8.10;;;2.78;;
66212;SDS011;53015;50.046;8.238;2022-08-21T00:46:02;8.27;;;2.05;;
66212;SDS011;53015;50.046;8.238;2022-08-21T00:48:29;8.10;;;2.47;;
66212;SDS011;53015;50.046;8.238;2022-08-21T00:50:58;9.18;;;2.42;;
66212;SDS011;53015;50.046;8.238;2022-08-21T00:53:27;8.18;;;2.28;;
66212;SDS011;53015;50.046;8.238;2022-08-21T00:55:54;6.72;;;2.38;;
66212;SDS011;53015;50.046;8.238;2022-08-21T00:58:20;5.18;;;2.15;;
66212;SDS011;53015;50.046;8.238;2022-08-21T01:00:46;5.78;;;2.20;;
66212;SDS011;53015;50.046;8.238;2022-08-21T01:03:15;9.27;;;2.22;;
66212;SDS011;53015;50.046;8.238;2022-08-21T01:05:43;6.68;;;2.30;;
66212;SDS011;53015;50.046;8.238;2022-08-21T01:08:10;8.18;;;2.00;;
66212;SDS011;53015;50.046;8.238;2022-08-21T01:10:37;7.80;;;1.88;;
66212;SDS011;53015;50.046;8.238;2022-08-21T01:13:03;5.97;;;2.20;;
66212;SDS011;53015;50.046;8.238;2022-08-21T01:15:33;10.65;;;1.90;;
66212;SDS011;53015;50.046;8.238;2022-08-21T01:18:01;8.07;;;2.03;;
66212;SDS011;53015;50.046;8.238;2022-08-21T01:20:28;4.68;;;2.13;;
66212;SDS011;53015;50.046;8.238;2022-08-21T01:22:54;5.03;;;2.22;;
66212;SDS011;53015;50.046;8.238;2022-08-21T01:25:19;5.13;;;2.17;;
66212;SDS011;53015;50.046;8.238;2022-08-21T01:27:45;5.63;;;1.95;;
66212;SDS011;53015;50.046;8.238;2022-08-21T01:30:16;5.00;;;2.17;;
66212;SDS011;53015;50.046;8.238;2022-08-21T01:32:44;6.47;;;2.10;;
66212;SDS011;53015;50.046;8.238;2022-08-21T01:35:11;7.18;;;2.42;;
66212;SDS011;53015;50.046;8.238;2022-08-21T01:37:38;5.03;;;1.95;;
66212;SDS011;53015;50.046;8.238;2022-08-21T01:40:04;6.43;;;2.03;;
66212;SDS011;53015;50.046;8.238;2022-08-21T01:42:32;6.68;;;2.38;;
66212;SDS011;53015;50.046;8.238;2022-08-21T01:44:58;5.65;;;2.13;;
66212;SDS011;53015;50.046;8.238;2022-08-21T01:47:24;7.97;;;2.30;;
66212;SDS011;53015;50.046;8.238;2022-08-21T01:49:49;8.80;;;2.38;;
66212;SDS011;53015;50.046;8.238;2022-08-21T01:52:15;7.13;;;2.00;;
66212;SDS011;53015;50.046;8.238;2022-08-21T01:54:40;7.68;;;2.20;;
66212;SDS011;53015;50.046;8.238;2022-08-21T01:57:06;7.85;;;2.38;;
66212;SDS011;53015;50.046;8.238;2022-08-21T01:59:33;7.82;;;2.65;;
66212;SDS011;53015;50.046;8.238;2022-08-21T02:01:59;6.45;;;2.33;;
66212;SDS011;53015;50.046;8.238;2022-08-21T02:04:25;9.85;;;2.05;;
66212;SDS011;53015;50.046;8.238;2022-08-21T02:06:51;6.50;;;2.15;;
66212;SDS011;53015;50.046;8.238;2022-08-21T02:09:17;7.25;;;2.15;;
66212;SDS011;53015;50.046;8.238;2022-08-21T02:11:42;6.47;;;2.10;;
66212;SDS011;53015;50.046;8.238;2022-08-21T02:14:09;6.45;;;2.08;;
66212;SDS011;53015;50.046;8.238;2022-08-21T02:16:36;6.40;;;2.10;;
66212;SDS011;53015;50.046;8.238;2022-08-21T02:19:03;5.38;;;2.20;;
66212;SDS011;53015;50.046;8.238;2022-08-21T02:21:28;6.78;;;2.80;;
66212;SDS011;53015;50.046;8.238;2022-08-21T02:23:53;8.20;;;2.33;;
66212;SDS011;53015;50.046;8.238;2022-08-21T02:26:19;7.68;;;2.40;;
66212;SDS011;53015;50.046;8.238;2022-08-21T02:28:44;5.68;;;2.40;;
66212;SDS011;53015;50.046;8.238;2022-08-21T02:31:10;7.72;;;2.45;;
66212;SDS011;53015;50.046;8.238;2022-08-21T02:33:35;5.93;;;2.40;;
66212;SDS011;53015;50.046;8.238;2022-08-21T02:36:01;5.80;;;1.95;;
66212;SDS011;53015;50.046;8.238;2022-08-21T02:38:28;6.22;;;2.30;;
66212;SDS011;53015;50.046;8.238;2022-08-21T02:40:56;14.70;;;2.75;;
66212;SDS011;53015;50.046;8.238;2022-08-21T02:43:22;9.45;;;3.13;;
66212;SDS011;53015;50.046;8.238;2022-08-21T02:45:49;7.03;;;2.38;;
66212;SDS011;53015;50.046;8.238;2022-08-21T02:48:17;10.43;;;2.40;;
66212;SDS011;53015;50.046;8.238;2022-08-21T02:50:48;9.80;;;2.70;;
66212;SDS011;53015;50.046;8.238;2022-08-21T02:53:17;6.10;;;2.70;;
66212;SDS011;53015;50.046;8.238;2022-08-21T02:55:44;5.97;;;2.53;;
66212;SDS011;53015;50.046;8.238;2022-08-21T02:58:11;6.18;;;2.30;;
66212;SDS011;53015;50.046;8.238;2022-08-21T03:00:37;7.65;;;2.47;;
66212;SDS011;53015;50.046;8.238;2022-08-21T03:03:04;5.82;;;2.42;;
66212;SDS011;53015;50.046;8.238;2022-08-21T03:05:30;8.02;;;2.80;;
66212;SDS011;53015;50.046;8.238;2022-08-21T03:07:57;9.23;;;2.72;;
66212;SDS011;53015;50.046;8.238;2022-08-21T03:10:23;8.75;;;2.55;;
66212;SDS011;53015;50.046;8.238;2022-08-21T03:12:49;5.95;;;2.50;;
66212;SDS011;53015;50.046;8.238;2022-08-21T03:15:17;6.65;;;2.47;;
66212;SDS011;53015;50.046;8.238;2022-08-21T03:17:45;7.38;;;2.58;;
66212;SDS011;53015;50.046;8.238;2022-08-21T03:20:12;5.70;;;2.50;;
66212;SDS011;53015;50.046;8.238;2022-08-21T03:22:39;5.43;;;2.50;;
66212;SDS011;53015;50.046;8.238;2022-08-21T03:25:05;7.88;;;2.80;;
66212;SDS011;53015;50.046;8.238;2022-08-21T03:27:31;6.30;;;2.50;;
66212;SDS011;53015;50.046;8.238;2022-08-21T03:29:57;11.25;;;2.65;;
66212;SDS011;53015;50.046;8.238;2022-08-21T03:32:22;6.80;;;2.67;;
66212;SDS011;53015;50.046;8.238;2022-08-21T03:34:48;4.35;;;2.30;;
66212;SDS011;53015;50.046;8.238;2022-08-21T03:37:15;6.82;;;2.83;;
66212;SDS011;53015;50.046;8.238;2022-08-21T03:39:41;6.63;;;2.70;;
66212;SDS011;53015;50.046;8.238;2022-08-21T03:42:07;8.82;;;2.58;;
66212;SDS011;53015;50.046;8.238;2022-08-21T03:44:33;7.45;;;2.80;;
66212;SDS011;53015;50.046;8.238;2022-08-21T03:46:59;7.43;;;2.65;;
66212;SDS011;53015;50.046;8.238;2022-08-21T03:49:25;8.38;;;2.50;;
66212;SDS011;53015;50.046;8.238;2022-08-21T03:51:51;7.38;;;2.38;;
66212;SDS011;53015;50.046;8.238;2022-08-21T03:54:16;4.70;;;2.25;;
66212;SDS011;53015;50.046;8.238;2022-08-21T03:56:42;4.30;;;2.20;;
66212;SDS011;53015;50.046;8.238;2022-08-21T03:59:07;5.95;;;2.40;;
66212;SDS011;53015;50.046;8.238;2022-08-21T04:01:33;5.00;;;2.35;;
66212;SDS011;53015;50.046;8.238;2022-08-21T04:03:58;5.63;;;2.22;;
66212;SDS011;53015;50.046;8.238;2022-08-21T04:06:24;7.47;;;2.60;;
66212;SDS011;53015;50.046;8.238;2022-08-21T04:08:51;5.57;;;2.60;;
66212;SDS011;53015;50.046;8.238;2022-08-21T04:11:17;6.35;;;2.70;;
66212;SDS011;53015;50.046;8.238;2022-08-21T04:13:43;6.10;;;2.30;;
66212;SDS011;53015;50.046;8.238;2022-08-21T04:16:09;7.88;;;2.58;;
66212;SDS011;53015;50.046;8.238;2022-08-21T04:18:35;5.28;;;2.60;;
66212;SDS011;53015;50.046;8.238;2022-08-21T04:21:00;7.35;;;2.63;;
66212;SDS011;53015;50.046;8.238;2022-08-21T04:23:27;8.18;;;2.70;;
66212;SDS011;53015;50.046;8.238;2022-08-21T04:25:53;11.30;;;2.90;;
66212;SDS011;53015;50.046;8.238;2022-08-21T04:28:21;5.13;;;2.60;;
66212;SDS011;53015;50.046;8.238;2022-08-21T04:30:47;5.13;;;2.50;;
66212;SDS011;53015;50.046;8.238;2022-08-21T04:33:13;6.72;;;2.65;;
66212;SDS011;53015;50.046;8.238;2022-08-21T04:35:38;7.80;;;3.55;;
66212;SDS011;53015;50.046;8.238;2022-08-21T04:38:04;4.18;;;2.42;;
66212;SDS011;53015;50.046;8.238;2022-08-21T04:40:29;8.88;;;2.53;;
66212;SDS011;53015;50.046;8.238;2022-08-21T04:42:56;6.28;;;2.80;;
66212;SDS011;53015;50.046;8.238;2022-08-21T04:45:30;4.97;;;2.10;;
66212;SDS011;53015;50.046;8.238;2022-08-21T04:47:59;5.97;;;2.40;;
66212;SDS011;53015;50.046;8.238;2022-08-21T04:50:30;6.40;;;2.55;;
66212;SDS011;53015;50.046;8.238;2022-08-21T04:53:01;8.05;;;2.55;;
66212;SDS011;53015;50.046;8.238;2022-08-21T04:55:26;7.28;;;2.33;;
66212;SDS011;53015;50.046;8.238;2022-08-21T04:57:53;6.78;;;2.40;;
66212;SDS011;53015;50.046;8.238;2022-08-21T05:00:21;3.88;;;2.38;;
66212;SDS011;53015;50.046;8.238;2022-08-21T05:02:49;6.32;;;2.53;;
66212;SDS011;53015;50.046;8.238;2022-08-21T05:05:19;5.47;;;2.30;;
66212;SDS011;53015;50.046;8.238;2022-08-21T05:07:44;4.38;;;2.50;;
66212;SDS011;53015;50.046;8.238;2022-08-21T05:10:11;7.85;;;3.05;;
66212;SDS011;53015;50.046;8.238;2022-08-21T05:12:39;7.60;;;2.58;;
66212;SDS011;53015;50.046;8.238;2022-08-21T05:15:06;5.05;;;2.28;;
66212;SDS011;53015;50.046;8.238;2022-08-21T05:17:32;8.50;;;2.75;;
66212;SDS011;53015;50.046;8.238;2022-08-21T05:19:58;7.38;;;2.40;;
66212;SDS011;53015;50.046;8.238;2022-08-21T05:22:23;5.25;;;2.40;;
66212;SDS011;53015;50.046;8.238;2022-08-21T05:24:49;5.88;;;2.45;;
66212;SDS011;53015;50.046;8.238;2022-08-21T05:27:16;8.25;;;2.35;;
66212;SDS011;53015;50.046;8.238;2022-08-21T05:29:44;7.38;;;2.60;;
66212;SDS011;53015;50.046;8.238;2022-08-21T05:32:12;12.65;;;2.88;;
66212;SDS011;53015;50.046;8.238;2022-08-21T05:34:38;6.90;;;2.70;;
66212;SDS011;53015;50.046;8.238;2022-08-21T05:37:04;4.40;;;2.60;;
66212;SDS011;53015;50.046;8.238;2022-08-21T05:39:30;5.38;;;2.72;;
66212;SDS011;53015;50.046;8.238;2022-08-21T05:41:56;7.07;;;2.97;;
66212;SDS011;53015;50.046;8.238;2022-08-21T05:44:27;6.95;;;2.63;;
66212;SDS011;53015;50.046;8.238;2022-08-21T05:46:52;12.20;;;3.22;;
66212;SDS011;53015;50.046;8.238;2022-08-21T05:49:18;8.48;;;2.30;;
66212;SDS011;53015;50.046;8.238;2022-08-21T05:51:44;9.18;;;2.90;;
66212;SDS011;53015;50.046;8.238;2022-08-21T05:54:09;8.35;;;2.60;;
66212;SDS011;53015;50.046;8.238;2022-08-21T05:56:35;6.28;;;2.78;;
66212;SDS011;53015;50.046;8.238;2022-08-21T05:59:02;7.80;;;2.63;;
66212;SDS011;53015;50.046;8.238;2022-08-21T06:01:27;7.22;;;2.67;;
66212;SDS011;53015;50.046;8.238;2022-08-21T06:03:53;7.00;;;2.40;;
66212;SDS011;53015;50.046;8.238;2022-08-21T06:06:18;6.43;;;2.88;;
66212;SDS011;53015;50.046;8.238;2022-08-21T06:08:44;6.82;;;2.60;;
66212;SDS011;53015;50.046;8.238;2022-08-21T06:11:10;5.60;;;2.60;;
66212;SDS011;53015;50.046;8.238;2022-08-21T06:13:36;6.97;;;2.90;;
66212;SDS011;53015;50.046;8.238;2022-08-21T06:16:09;6.68;;;3.28;;
66212;SDS011;53015;50.046;8.238;2022-08-21T06:18:39;9.13;;;2.67;;
66212;SDS011;53015;50.046;8.238;2022-08-21T06:21:05;8.88;;;2.75;;
66212;SDS011;53015;50.046;8.238;2022-08-21T06:23:31;7.78;;;2.83;;
66212;SDS011;53015;50.046;8.238;2022-08-21T06:25:57;6.07;;;2.60;;
66212;SDS011;53015;50.046;8.238;2022-08-21T06:28:23;6.00;;;2.35;;
66212;SDS011;53015;50.046;8.238;2022-08-21T06:30:49;8.60;;;2.67;;
66212;SDS011;53015;50.046;8.238;2022-08-21T06:33:14;8.27;;;2.63;;
66212;SDS011;53015;50.046;8.238;2022-08-21T06:35:39;10.35;;;2.90;;
66212;SDS011;53015;50.046;8.238;2022-08-21T06:38:05;5.97;;;2.60;;
66212;SDS011;53015;50.046;8.238;2022-08-21T06:40:31;7.80;;;2.72;;
66212;SDS011;53015;50.046;8.238;2022-08-21T06:42:57;10.07;;;2.88;;
66212;SDS011;53015;50.046;8.238;2022-08-21T06:45:23;6.43;;;2.90;;
66212;SDS011;53015;50.046;8.238;2022-08-21T06:47:49;8.05;;;3.20;;
66212;SDS011;53015;50.046;8.238;2022-08-21T06:50:15;5.43;;;2.70;;
66212;SDS011;53015;50.046;8.238;2022-08-21T06:52:40;7.30;;;2.80;;
66212;SDS011;53015;50.046;8.238;2022-08-21T06:55:09;5.25;;;2.78;;
66212;SDS011;53015;50.046;8.238;2022-08-21T06:57:35;11.18;;;3.72;;
66212;SDS011;53015;50.046;8.238;2022-08-21T07:00:00;7.15;;;2.70;;
66212;SDS011;53015;50.046;8.238;2022-08-21T07:02:29;8.55;;;3.10;;
66212;SDS011;53015;50.046;8.238;2022-08-21T07:04:55;7.35;;;3.50;;
66212;SDS011;53015;50.046;8.238;2022-08-21T07:07:20;6.47;;;3.40;;
66212;SDS011;53015;50.046;8.238;2022-08-21T07:09:46;8.35;;;3.00;;
66212;SDS011;53015;50.046;8.238;2022-08-21T07:12:11;8.15;;;3.15;;
66212;SDS011;53015;50.046;8.238;2022-08-21T07:14:40;7.32;;;3.00;;
66212;SDS011;53015;50.046;8.238;2022-08-21T07:17:05;10.18;;;3.28;;
66212;SDS011;53015;50.046;8.238;2022-08-21T07:19:30;9.85;;;3.28;;
66212;SDS011;53015;50.046;8.238;2022-08-21T07:21:57;8.60;;;3.30;;
66212;SDS011;53015;50.046;8.238;2022-08-21T07:24:25;5.50;;;3.15;;
66212;SDS011;53015;50.046;8.238;2022-08-21T07:26:50;6.20;;;2.80;;
66212;SDS011;53015;50.046;8.238;2022-08-21T07:29:16;7.80;;;2.70;;
66212;SDS011;53015;50.046;8.238;2022-08-21T07:31:42;5.38;;;2.75;;
66212;SDS011;53015;50.046;8.238;2022-08-21T07:34:07;9.20;;;2.97;;
66212;SDS011;53015;50.046;8.238;2022-08-21T07:36:33;10.27;;;3.22;;
66212;SDS011;53015;50.046;8.238;2022-08-21T07:38:58;10.18;;;3.15;;
66212;SDS011;53015;50.046;8.238;2022-08-21T07:41:25;7.18;;;2.90;;
66212;SDS011;53015;50.046;8.238;2022-08-21T07:43:53;9.60;;;3.10;;
66212;SDS011;53015;50.046;8.238;2022-08-21T07:46:19;7.53;;;3.30;;
66212;SDS011;53015;50.046;8.238;2022-08-21T07:48:45;8.07;;;3.60;;
66212;SDS011;53015;50.046;8.238;2022-08-21T07:51:12;7.10;;;2.60;;
66212;SDS011;53015;50.046;8.238;2022-08-21T07:53:40;8.70;;;3.22;;
66212;SDS011;53015;50.046;8.238;2022-08-21T07:56:06;9.18;;;2.70;;
66212;SDS011;53015;50.046;8.238;2022-08-21T07:58:33;11.43;;;3.40;;
66212;SDS011;53015;50.046;8.238;2022-08-21T08:00:59;8.93;;;3.15;;
66212;SDS011;53015;50.046;8.238;2022-08-21T08:03:25;9.57;;;3.17;;
66212;SDS011;53015;50.046;8.238;2022-08-21T08:05:50;7.80;;;3.42;;
66212;SDS011;53015;50.046;8.238;2022-08-21T08:08:16;8.73;;;3.50;;
66212;SDS011;53015;50.046;8.238;2022-08-21T08:10:42;8.77;;;4.10;;
66212;SDS011;53015;50.046;8.238;2022-08-21T08:13:07;9.07;;;4.25;;
66212;SDS011;53015;50.046;8.238;2022-08-21T08:15:33;12.40;;;4.07;;
66212;SDS011;53015;50.046;8.238;2022-08-21T08:17:59;7.60;;;3.63;;
66212;SDS011;53015;50.046;8.238;2022-08-21T08:20:24;8.90;;;4.05;;
66212;SDS011;53015;50.046;8.238;2022-08-21T08:22:51;8.07;;;3.47;;
66212;SDS011;53015;50.046;8.238;2022-08-21T08:25:18;8.65;;;4.00;;
66212;SDS011;53015;50.046;8.238;2022-08-21T08:27:44;7.57;;;3.67;;
66212;SDS011;53015;50.046;8.238;2022-08-21T08:30:11;7.53;;;3.28;;
66212;SDS011;53015;50.046;8.238;2022-08-21T08:32:38;13.15;;;4.18;;
66212;SDS011;53015;50.046;8.238;2022-08-21T08:35:04;8.32;;;3.92;;
66212;SDS011;53015;50.046;8.238;2022-08-21T08:37:32;13.07;;;4.97;;
66212;SDS011;53015;50.046;8.238;2022-08-21T08:39:58;14.60;;;4.13;;
66212;SDS011;53015;50.046;8.238;2022-08-21T08:42:25;9.57;;;4.55;;
66212;SDS011;53015;50.046;8.238;2022-08-21T08:45:02;8.02;;;4.07;;
66212;SDS011;53015;50.046;8.238;2022-08-21T08:47:32;8.20;;;4.28;;
66212;SDS011;53015;50.046;8.238;2022-08-21T08:50:10;7.97;;;4.05;;
66212;SDS011;53015;50.046;8.238;2022-08-21T08:52:43;9.07;;;4.35;;
66212;SDS011;53015;50.046;8.238;2022-08-21T08:55:21;12.80;;;3.60;;
66212;SDS011;53015;50.046;8.238;2022-08-21T08:57:51;10.82;;;3.78;;
66212;SDS011;53015;50.046;8.238;2022-08-21T09:00:19;8.57;;;3.63;;
66212;SDS011;53015;50.046;8.238;2022-08-21T09:02:46;8.32;;;3.17;;
66212;SDS011;53015;50.046;8.238;2022-08-21T09:05:19;6.40;;;2.13;;
66212;SDS011;53015;50.046;8.238;2022-08-21T09:08:14;6.35;;;2.50;;
66212;SDS011;53015;50.046;8.238;2022-08-21T09:11:19;7.78;;;2.85;;
66212;SDS011;53015;50.046;8.238;2022-08-21T09:22:38;6.28;;;2.50;;
66212;SDS011;53015;50.046;8.238;2022-08-21T09:27:35;8.52;;;2.67;;
66212;SDS011;53015;50.046;8.238;2022-08-21T09:30:03;7.10;;;2.60;;
66212;SDS011;53015;50.046;8.238;2022-08-21T09:32:31;7.10;;;2.35;;
66212;SDS011;53015;50.046;8.238;2022-08-21T09:35:00;7.10;;;2.80;;
66212;SDS011;53015;50.046;8.238;2022-08-21T09:37:46;6.70;;;2.83;;
66212;SDS011;53015;50.046;8.238;2022-08-21T09:43:22;6.97;;;2.50;;
66212;SDS011;53015;50.046;8.238;2022-08-21T09:45:44;6.28;;;2.53;;
66212;SDS011;53015;50.046;8.238;2022-08-21T09:48:21;6.50;;;2.67;;
66212;SDS011;53015;50.046;8.238;2022-08-21T09:50:49;8.63;;;2.53;;
66212;SDS011;53015;50.046;8.238;2022-08-21T09:53:37;8.98;;;2.40;;
66212;SDS011;53015;50.046;8.238;2022-08-21T09:56:16;11.02;;;2.75;;
66212;SDS011;53015;50.046;8.238;2022-08-21T09:59:12;6.05;;;2.25;;
66212;SDS011;53015;50.046;8.238;2022-08-21T10:02:01;9.13;;;2.70;;
66212;SDS011;53015;50.046;8.238;2022-08-21T10:04:42;6.95;;;2.47;;
66212;SDS011;53015;50.046;8.238;2022-08-21T10:07:15;6.15;;;2.42;;
66212;SDS011;53015;50.046;8.238;2022-08-21T10:09:44;8.77;;;2.60;;
66212;SDS011;53015;50.046;8.238;2022-08-21T10:12:15;8.20;;;2.40;;
66212;SDS011;53015;50.046;8.238;2022-08-21T10:14:57;5.00;;;2.10;;
66212;SDS011;53015;50.046;8.238;2022-08-21T10:21:04;5.15;;;2.30;;
66212;SDS011;53015;50.046;8.238;2022-08-21T10:25:55;10.82;;;2.97;;
66212;SDS011;53015;50.046;8.238;2022-08-21T10:28:32;8.55;;;2.50;;
66212;SDS011;53015;50.046;8.238;2022-08-21T10:31:29;7.55;;;2.78;;
66212;SDS011;53015;50.046;8.238;2022-08-21T10:44:38;3.78;;;1.67;;
66212;SDS011;53015;50.046;8.238;2022-08-21T10:47:25;6.25;;;2.00;;
66212;SDS011;53015;50.046;8.238;2022-08-21T10:50:17;4.03;;;2.03;;
66212;SDS011;53015;50.046;8.238;2022-08-21T10:55:22;5.53;;;2.25;;
66212;SDS011;53015;50.046;8.238;2022-08-21T11:03:24;5.53;;;2.20;;
66212;SDS011;53015;50.046;8.238;2022-08-21T11:06:02;5.38;;;1.98;;
66212;SDS011;53015;50.046;8.238;2022-08-21T11:08:38;4.47;;;2.00;;
66212;SDS011;53015;50.046;8.238;2022-08-21T11:11:16;5.63;;;1.83;;
66212;SDS011;53015;50.046;8.238;2022-08-21T11:13:47;9.20;;;2.40;;
66212;SDS011;53015;50.046;8.238;2022-08-21T11:16:26;5.80;;;2.00;;
66212;SDS011;53015;50.046;8.238;2022-08-21T11:19:09;5.25;;;1.90;;
66212;SDS011;53015;50.046;8.238;2022-08-21T11:24:32;6.45;;;2.22;;
66212;SDS011;53015;50.046;8.238;2022-08-21T11:27:18;5.85;;;2.20;;
66212;SDS011;53015;50.046;8.238;2022-08-21T11:29:55;6.22;;;2.40;;
66212;SDS011;53015;50.046;8.238;2022-08-21T11:43:12;4.13;;;2.00;;
66212;SDS011;53015;50.046;8.238;2022-08-21T11:46:04;5.13;;;2.20;;
66212;SDS011;53015;50.046;8.238;2022-08-21T11:51:54;5.15;;;2.30;;
66212;SDS011;53015;50.046;8.238;2022-08-21T11:54:37;12.63;;;2.10;;
66212;SDS011;53015;50.046;8.238;2022-08-21T11:57:31;5.88;;;2.28;;
66212;SDS011;53015;50.046;8.238;2022-08-21T12:02:56;5.90;;;1.85;;
66212;SDS011;53015;50.046;8.238;2022-08-21T12:05:31;6.15;;;2.03;;
66212;SDS011;53015;50.046;8.238;2022-08-21T12:08:09;4.53;;;1.92;;
66212;SDS011;53015;50.046;8.238;2022-08-21T12:10:41;5.15;;;2.22;;
66212;SDS011;53015;50.046;8.238;2022-08-21T12:14:13;4.18;;;1.90;;
66212;SDS011;53015;50.046;8.238;2022-08-21T12:16:39;4.15;;;1.80;;
66212;SDS011;53015;50.046;8.238;2022-08-21T12:24:20;5.35;;;1.92;;
66212;SDS011;53015;50.046;8.238;2022-08-21T12:30:05;4.53;;;1.90;;
66212;SDS011;53015;50.046;8.238;2022-08-21T12:32:45;5.88;;;2.10;;
66212;SDS011;53015;50.046;8.238;2022-08-21T12:35:20;4.05;;;1.98;;
66212;SDS011;53015;50.046;8.238;2022-08-21T12:37:52;6.53;;;2.17;;
66212;SDS011;53015;50.046;8.238;2022-08-21T12:40:30;4.53;;;2.03;;
66212;SDS011;53015;50.046;8.238;2022-08-21T12:43:02;5.70;;;2.10;;
66212;SDS011;53015;50.046;8.238;2022-08-21T12:45:46;4.88;;;1.95;;
66212;SDS011;53015;50.046;8.238;2022-08-21T12:50:52;3.93;;;1.80;;
66212;SDS011;53015;50.046;8.238;2022-08-21T12:53:30;4.50;;;1.98;;
66212;SDS011;53015;50.046;8.238;2022-08-21T12:56:02;4.68;;;2.33;;
66212;SDS011;53015;50.046;8.238;2022-08-21T12:58:29;7.03;;;2.30;;
66212;SDS011;53015;50.046;8.238;2022-08-21T13:00:58;5.47;;;1.77;;
66212;SDS011;53015;50.046;8.238;2022-08-21T13:03:27;5.93;;;2.10;;
66212;SDS011;53015;50.046;8.238;2022-08-21T13:05:53;3.85;;;2.00;;
66212;SDS011;53015;50.046;8.238;2022-08-21T13:08:19;5.28;;;2.00;;
66212;SDS011;53015;50.046;8.238;2022-08-21T13:10:49;5.88;;;2.10;;
66212;SDS011;53015;50.046;8.238;2022-08-21T13:13:22;4.95;;;2.10;;
66212;SDS011;53015;50.046;8.238;2022-08-21T13:15:56;7.38;;;1.90;;
66212;SDS011;53015;50.046;8.238;2022-08-21T13:18:24;6.63;;;1.98;;
66212;SDS011;53015;50.046;8.238;2022-08-21T13:21:01;4.13;;;1.80;;
66212;SDS011;53015;50.046;8.238;2022-08-21T13:23:29;4.43;;;2.10;;
66212;SDS011;53015;50.046;8.238;2022-08-21T13:25:55;7.70;;;2.13;;
66212;SDS011;53015;50.046;8.238;2022-08-21T13:28:21;10.43;;;2.00;;
66212;SDS011;53015;50.046;8.238;2022-08-21T13:30:48;6.65;;;2.03;;
66212;SDS011;53015;50.046;8.238;2022-08-21T13:33:24;5.78;;;2.17;;
66212;SDS011;53015;50.046;8.238;2022-08-21T13:38:24;5.40;;;2.38;;
66212;SDS011;53015;50.046;8.238;2022-08-21T13:40:56;2.20;;;1.75;;
66212;SDS011;53015;50.046;8.238;2022-08-21T13:43:28;6.43;;;2.03;;
66212;SDS011;53015;50.046;8.238;2022-08-21T13:45:57;5.10;;;2.20;;
66212;SDS011;53015;50.046;8.238;2022-08-21T13:48:25;4.20;;;2.13;;
66212;SDS011;53015;50.046;8.238;2022-08-21T13:50:54;4.13;;;1.90;;
66212;SDS011;53015;50.046;8.238;2022-08-21T13:56:00;4.15;;;2.20;;
66212;SDS011;53015;50.046;8.238;2022-08-21T14:00:55;11.93;;;1.98;;
66212;SDS011;53015;50.046;8.238;2022-08-21T14:03:27;4.40;;;1.98;;
66212;SDS011;53015;50.046;8.238;2022-08-21T14:05:59;6.15;;;2.08;;
66212;SDS011;53015;50.046;8.238;2022-08-21T14:08:29;5.28;;;1.95;;
66212;SDS011;53015;50.046;8.238;2022-08-21T14:10:58;7.72;;;2.50;;
66212;SDS011;53015;50.046;8.238;2022-08-21T14:13:28;3.55;;;1.80;;
66212;SDS011;53015;50.046;8.238;2022-08-21T14:16:00;9.38;;;2.20;;
66212;SDS011;53015;50.046;8.238;2022-08-21T14:18:27;3.92;;;2.00;;
66212;SDS011;53015;50.046;8.238;2022-08-21T14:21:04;4.53;;;1.90;;
66212;SDS011;53015;50.046;8.238;2022-08-21T14:23:31;3.92;;;2.00;;
66212;SDS011;53015;50.046;8.238;2022-08-21T14:25:58;3.60;;;1.75;;
66212;SDS011;53015;50.046;8.238;2022-08-21T14:28:27;8.20;;;1.75;;
66212;SDS011;53015;50.046;8.238;2022-08-21T14:30:56;3.38;;;1.90;;
66212;SDS011;53015;50.046;8.238;2022-08-21T14:33:26;6.05;;;1.85;;
66212;SDS011;53015;50.046;8.238;2022-08-21T14:35:54;5.22;;;2.00;;
66212;SDS011;53015;50.046;8.238;2022-08-21T14:38:20;6.13;;;1.92;;
66212;SDS011;53015;50.046;8.238;2022-08-21T14:40:48;3.38;;;1.80;;
66212;SDS011;53015;50.046;8.238;2022-08-21T14:43:16;5.68;;;1.63;;
66212;SDS011;53015;50.046;8.238;2022-08-21T14:45:43;6.07;;;2.15;;
66212;SDS011;53015;50.046;8.238;2022-08-21T14:48:09;3.28;;;1.80;;
66212;SDS011;53015;50.046;8.238;2022-08-21T14:50:35;9.48;;;2.10;;
66212;SDS011;53015;50.046;8.238;2022-08-21T14:53:01;4.20;;;1.83;;
66212;SDS011;53015;50.046;8.238;2022-08-21T14:55:28;3.33;;;1.77;;
66212;SDS011;53015;50.046;8.238;2022-08-21T14:57:55;6.47;;;2.10;;
66212;SDS011;53015;50.046;8.238;2022-08-21T15:00:22;5.28;;;1.90;;
66212;SDS011;53015;50.046;8.238;2022-08-21T15:02:49;3.95;;;1.90;;
66212;SDS011;53015;50.046;8.238;2022-08-21T15:05:15;4.60;;;1.88;;
66212;SDS011;53015;50.046;8.238;2022-08-21T15:07:42;3.40;;;1.55;;
66212;SDS011;53015;50.046;8.238;2022-08-21T15:10:08;4.28;;;1.60;;
66212;SDS011;53015;50.046;8.238;2022-08-21T15:12:34;4.70;;;1.92;;
66212;SDS011;53015;50.046;8.238;2022-08-21T15:15:00;5.45;;;1.77;;
66212;SDS011;53015;50.046;8.238;2022-08-21T15:17:26;5.35;;;1.83;;
66212;SDS011;53015;50.046;8.238;2022-08-21T15:19:52;5.57;;;1.70;;
66212;SDS011;53015;50.046;8.238;2022-08-21T15:22:17;5.15;;;2.13;;
66212;SDS011;53015;50.046;8.238;2022-08-21T15:24:43;5.60;;;1.58;;
66212;SDS011;53015;50.046;8.238;2022-08-21T15:27:09;4.07;;;1.83;;
66212;SDS011;53015;50.046;8.238;2022-08-21T15:29:35;3.63;;;1.90;;
66212;SDS011;53015;50.046;8.238;2022-08-21T15:32:02;6.88;;;2.10;;
66212;SDS011;53015;50.046;8.238;2022-08-21T15:34:41;4.68;;;1.83;;
66212;SDS011;53015;50.046;8.238;2022-08-21T15:37:06;7.15;;;2.10;;
66212;SDS011;53015;50.046;8.238;2022-08-21T15:39:33;4.65;;;2.22;;
66212;SDS011;53015;50.046;8.238;2022-08-21T15:42:00;2.53;;;1.42;;
66212;SDS011;53015;50.046;8.238;2022-08-21T15:44:26;4.18;;;1.88;;
66212;SDS011;53015;50.046;8.238;2022-08-21T15:46:53;4.82;;;1.98;;
66212;SDS011;53015;50.046;8.238;2022-08-21T15:49:18;6.05;;;1.65;;
66212;SDS011;53015;50.046;8.238;2022-08-21T15:51:44;3.58;;;1.60;;
66212;SDS011;53015;50.046;8.238;2022-08-21T15:54:09;2.42;;;1.55;;
66212;SDS011;53015;50.046;8.238;2022-08-21T15:56:36;4.40;;;1.70;;
66212;SDS011;53015;50.046;8.238;2022-08-21T15:59:04;2.83;;;1.50;;
66212;SDS011;53015;50.046;8.238;2022-08-21T16:01:32;4.47;;;1.60;;
66212;SDS011;53015;50.046;8.238;2022-08-21T16:03:58;4.07;;;1.67;;
66212;SDS011;53015;50.046;8.238;2022-08-21T16:06:24;2.17;;;1.40;;
66212;SDS011;53015;50.046;8.238;2022-08-21T16:08:49;9.82;;;1.75;;
66212;SDS011;53015;50.046;8.238;2022-08-21T16:11:15;3.38;;;1.55;;
66212;SDS011;53015;50.046;8.238;2022-08-21T16:13:42;2.28;;;1.38;;